createdAt,value
2022-08-22T00:01:10.826Z,98998.75
2022-08-22T00:03:02.490Z,99060.50
2022-08-22T00:04:05.615Z,99002.84
2022-08-22T00:06:53.865Z,99001.56
2022-08-22T00:09:48.794Z,99003.72
2022-08-22T00:12:21.407Z,99003.19
2022-08-22T00:14:58.906Z,99011.50
2022-08-22T00:17:30.137Z,99001.88
2022-08-22T00:19:59.787Z,99008.31
2022-08-22T00:22:39.166Z,99009.75
2022-08-22T00:25:30.458Z,99006.44
2022-08-22T00:28:04.426Z,99004.53
2022-08-22T00:30:42.806Z,99002.91
2022-08-22T00:33:20.746Z,99009.00
2022-08-22T00:35:51.708Z,98996.75
2022-08-22T00:38:34.371Z,99002.81
2022-08-22T00:41:15.160Z,98996.75
2022-08-22T00:43:51.570Z,98992.88
2022-08-22T00:46:39.612Z,98990.91
2022-08-22T00:49:36.780Z,98989.47
2022-08-22T00:52:03.459Z,98989.47
2022-08-22T00:54:33.240Z,98986.13
2022-08-22T00:57:18.641Z,98989.19
2022-08-22T01:00:15.070Z,98996.66
2022-08-22T01:03:01.710Z,98985.19
2022-08-22T01:05:47.151Z,98990.72
2022-08-22T01:08:35.512Z,98981.69
2022-08-22T01:11:39.743Z,98981.41
2022-08-22T01:14:34.184Z,98972.50
2022-08-22T01:17:24.924Z,98962.22
2022-08-22T01:20:13.453Z,98974.69
2022-08-22T01:22:42.825Z,98973.63
2022-08-22T01:25:46.984Z,98973.94
2022-08-22T01:28:17.367Z,98972.06
2022-08-22T01:30:50.638Z,98973.25
2022-08-22T01:33:59.317Z,98967.50
2022-08-22T01:36:59.736Z,98968.72
2022-08-22T01:40:11.249Z,98964.97
2022-08-22T01:43:15.548Z,98960.44
2022-08-22T01:46:16.849Z,98962.31
2022-08-22T01:48:53.257Z,98966.44
2022-08-22T01:51:36.639Z,98953.06
2022-08-22T01:54:13.260Z,98959.47
2022-08-22T01:56:44.437Z,98953.31
2022-08-22T01:59:14.600Z,98959.72
2022-08-22T02:02:04.188Z,98953.66
2022-08-22T02:04:46.464Z,98954.41
2022-08-22T02:07:17.829Z,98955.09
2022-08-22T02:10:15.742Z,98961.94
2022-08-22T02:13:08.793Z,98957.31
2022-08-22T02:15:41.531Z,98948.91
2022-08-22T02:18:21.311Z,98949.59
2022-08-22T02:20:48.010Z,98945.41
2022-08-22T02:23:22.199Z,98943.97
2022-08-22T02:26:05.095Z,98943.63
2022-08-22T02:29:04.843Z,98944.72
2022-08-22T02:32:15.834Z,98949.38
2022-08-22T02:34:55.074Z,98950.91
2022-08-22T02:37:34.703Z,98944.47
2022-08-22T02:40:20.592Z,98939.84
2022-08-22T02:43:26.875Z,98938.31
2022-08-22T02:46:05.714Z,98935.00
2022-08-22T02:48:57.538Z,98938.84
2022-08-22T02:51:59.612Z,98937.19
2022-08-22T02:54:43.157Z,98945.06
2022-08-22T02:57:39.451Z,98944.63
2022-08-22T03:00:31.369Z,98930.94
2022-08-22T03:03:05.599Z,98924.88
2022-08-22T03:05:38.242Z,98928.63
2022-08-22T03:08:17.182Z,98934.25
2022-08-22T03:11:00.209Z,98925.97
2022-08-22T03:13:40.471Z,98930.84
2022-08-22T03:16:18.569Z,98930.44
2022-08-22T03:18:57.124Z,98922.03
2022-08-22T03:21:45.523Z,98920.50
2022-08-22T03:24:27.795Z,98925.34
2022-08-22T03:27:32.808Z,98921.47
2022-08-22T03:30:07.371Z,98916.53
2022-08-22T03:32:57.664Z,98930.56
2022-08-22T03:35:27.130Z,98921.38
2022-08-22T03:38:09.056Z,98918.06
2022-08-22T03:40:46.513Z,98921.84
2022-08-22T03:43:51.964Z,98920.63
2022-08-22T03:46:45.794Z,98927.47
2022-08-22T03:49:42.894Z,98928.56
2022-08-22T03:52:18.401Z,98926.25
2022-08-22T03:55:18.097Z,98932.34
2022-08-22T03:57:50.981Z,98929.69
2022-08-22T04:00:36.405Z,98929.69
2022-08-22T04:03:24.241Z,98922.09
2022-08-22T04:06:28.394Z,98924.72
2022-08-22T04:09:30.720Z,98930.03
2022-08-22T04:11:57.459Z,98925.06
2022-08-22T04:14:37.640Z,98934.78
2022-08-22T04:17:39.697Z,98928.28
2022-08-22T04:20:30.746Z,98931.28
2022-08-22T04:23:16.097Z,98933.38
2022-08-22T04:25:51.907Z,98932.59
2022-08-22T04:28:37.489Z,98934.47
2022-08-22T04:31:11.534Z,98932.50
2022-08-22T04:34:11.201Z,98941.47
2022-08-22T04:36:50.518Z,98936.16
2022-08-22T04:39:42.654Z,98938.47
2022-08-22T04:42:35.146Z,98947.06
2022-08-22T04:45:07.913Z,98937.94
2022-08-22T04:47:35.540Z,98937.84
2022-08-22T04:50:14.534Z,98936.28
2022-08-22T04:52:55.233Z,98945.34
2022-08-22T04:55:34.368Z,98944.22
2022-08-22T04:58:25.842Z,98950.63
2022-08-22T05:01:10.663Z,98947.09
2022-08-22T05:03:44.960Z,98950.41
2022-08-22T05:06:14.875Z,98962.13
2022-08-22T05:08:44.025Z,98965.41
2022-08-22T05:11:12.403Z,98964.31
2022-08-22T05:13:52.115Z,98974.00
2022-08-22T05:16:28.333Z,98967.94
2022-08-22T05:19:01.106Z,98981.41
2022-08-22T05:21:33.127Z,98979.09
2022-08-22T05:24:11.463Z,98979.84
2022-08-22T05:26:42.327Z,98974.56
2022-08-22T05:29:12.329Z,98976.44
2022-08-22T05:31:45.670Z,98983.94
2022-08-22T05:34:20.309Z,98979.53
2022-08-22T05:36:54.782Z,98984.16
2022-08-22T05:39:28.048Z,98969.81
2022-08-22T05:41:57.889Z,98972.59
2022-08-22T05:44:28.130Z,98978.66
2022-08-22T05:46:57.737Z,98980.84
2022-08-22T05:49:53.632Z,98985.81
2022-08-22T05:52:39.138Z,98986.59
2022-08-22T05:55:24.529Z,98986.28
2022-08-22T05:58:23.971Z,98986.91
2022-08-22T06:01:02.154Z,99001.72
2022-08-22T06:03:38.834Z,99002.94
2022-08-22T06:06:16.535Z,99009.47
2022-08-22T06:09:18.113Z,99012.09
2022-08-22T06:11:55.224Z,99012.44
2022-08-22T06:14:44.807Z,99008.56
2022-08-22T06:17:26.905Z,99009.81
2022-08-22T06:19:54.896Z,99014.97
2022-08-22T06:22:26.265Z,99007.31
2022-08-22T06:24:58.098Z,99011.53
2022-08-22T06:27:31.280Z,99011.22
2022-08-22T06:30:01.720Z,99010.75
2022-08-22T06:32:58.989Z,99008.56
2022-08-22T06:35:26.455Z,99008.56
2022-08-22T06:37:58.383Z,99007.56
2022-08-22T06:40:28.766Z,99000.50
2022-08-22T06:42:57.731Z,99006.72
2022-08-22T06:45:33.721Z,99010.22
2022-08-22T06:48:13.149Z,99010.66
2022-08-22T06:50:43.321Z,99009.34
2022-08-22T06:53:21.908Z,99011.31
2022-08-22T06:55:57.432Z,99006.91
2022-08-22T06:58:31.004Z,99009.34
2022-08-22T07:01:18.237Z,99017.69
2022-08-22T07:03:52.791Z,99013.06
2022-08-22T07:06:29.552Z,99023.78
2022-08-22T07:08:56.853Z,99019.59
2022-08-22T07:11:36.902Z,99019.25
2022-08-22T07:14:07.521Z,99021.47
2022-08-22T07:16:58.082Z,99023.00
2022-08-22T07:19:38.227Z,99017.50
2022-08-22T07:22:21.325Z,99020.25
2022-08-22T07:24:53.675Z,99023.66
2022-08-22T07:27:50.974Z,99021.78
2022-08-22T07:30:27.966Z,99018.47
2022-08-22T07:33:25.880Z,99011.28
2022-08-22T07:35:53.539Z,99010.94
2022-08-22T07:38:32.479Z,99015.91
2022-08-22T07:41:15.229Z,99018.31
2022-08-22T07:43:46.988Z,99023.41
2022-08-22T07:46:21.606Z,99025.38
2022-08-22T07:49:12.581Z,99033.09
2022-08-22T07:51:51.571Z,99041.16
2022-08-22T07:54:29.611Z,99040.13
2022-08-22T07:57:00.997Z,99036.06
2022-08-22T07:59:30.849Z,99024.69
2022-08-22T08:02:01.180Z,99032.63
2022-08-22T08:04:39.495Z,99028.97
2022-08-22T08:07:10.345Z,99033.91
2022-08-22T08:09:51.642Z,99034.38
2022-08-22T08:12:25.843Z,99027.94
2022-08-22T08:14:54.666Z,99022.31
2022-08-22T08:17:21.428Z,99020.53
2022-08-22T08:19:50.306Z,99018.66
2022-08-22T08:22:21.043Z,99016.84
2022-08-22T08:24:49.665Z,99021.03
2022-08-22T08:27:26.212Z,99028.69
2022-08-22T08:29:59.777Z,99023.88
2022-08-22T08:32:31.511Z,99026.97
2022-08-22T08:34:58.892Z,99036.81
2022-08-22T08:37:47.521Z,99035.97
2022-08-22T08:40:24.267Z,99044.69
2022-08-22T08:43:13.490Z,99038.84
2022-08-22T08:46:17.870Z,99044.81
2022-08-22T08:49:01.191Z,99045.63
2022-08-22T08:52:10.085Z,99042.16
2022-08-22T08:54:54.910Z,99048.59
2022-08-22T08:57:41.475Z,99044.50
2022-08-22T09:00:10.814Z,99051.44
2022-08-22T09:03:01.235Z,99051.44
2022-08-22T09:05:55.623Z,99044.59
2022-08-22T09:09:03.040Z,99038.44
2022-08-22T09:11:51.663Z,99047.81
2022-08-22T09:14:49.599Z,99045.63
2022-08-22T09:17:44.577Z,99047.47
2022-08-22T09:20:35.135Z,99049.34
2022-08-22T09:23:13.778Z,99042.88
2022-08-22T09:25:51.242Z,99046.69
2022-08-22T09:28:58.611Z,99045.25
2022-08-22T09:31:47.481Z,99046.03
2022-08-22T09:34:37.012Z,99047.25
2022-08-22T09:37:20.789Z,99050.75
2022-08-22T09:39:58.364Z,99041.94
2022-08-22T09:42:56.810Z,99052.47
2022-08-22T09:45:34.130Z,99053.03
2022-08-22T09:48:26.621Z,99052.78
2022-08-22T09:51:33.287Z,99045.38
2022-08-22T09:54:22.946Z,99056.84
2022-08-22T09:56:59.606Z,99053.06
2022-08-22T09:59:55.074Z,99050.00
2022-08-22T10:02:37.713Z,99059.16
2022-08-22T10:05:40.935Z,99060.84
2022-08-22T10:08:30.370Z,99053.41
2022-08-22T10:11:09.656Z,99046.63
2022-08-22T10:13:52.872Z,99041.78
2022-08-22T10:16:51.939Z,99046.31
2022-08-22T10:19:27.782Z,99042.81
2022-08-22T10:22:19.262Z,99043.31
2022-08-22T10:25:12.937Z,99049.72
2022-08-22T10:27:48.491Z,99050.50
2022-08-22T10:30:48.911Z,99054.41
2022-08-22T10:33:20.439Z,99043.22
2022-08-22T10:36:04.763Z,99051.84
2022-08-22T10:38:46.214Z,99063.94
2022-08-22T10:41:38.423Z,99070.78
2022-08-22T10:44:17.208Z,99063.50
2022-08-22T10:46:57.964Z,99068.13
2022-08-22T10:49:42.383Z,99060.56
2022-08-22T10:52:15.550Z,99063.94
2022-08-22T10:55:01.452Z,99071.44
2022-08-22T10:57:52.528Z,99061.38
2022-08-22T11:00:34.827Z,99052.28
2022-08-22T11:03:10.654Z,99056.94
2022-08-22T11:05:46.134Z,99055.28
2022-08-22T11:08:28.530Z,99049.38
2022-08-22T11:10:58.629Z,99061.88
2022-08-22T11:13:50.240Z,99056.25
2022-08-22T11:16:55.639Z,99059.03
2022-08-22T11:19:44.783Z,99067.69
2022-08-22T11:22:36.897Z,99067.69
2022-08-22T11:25:12.711Z,99063.94
2022-08-22T11:28:28.857Z,99072.09
2022-08-22T11:31:14.265Z,99071.78
2022-08-22T11:34:09.593Z,99071.44
2022-08-22T11:36:47.233Z,99071.88
2022-08-22T11:39:44.078Z,99071.13
2022-08-22T11:42:22.447Z,99073.09
2022-08-22T11:45:00.290Z,99066.00
2022-08-22T11:47:34.385Z,99067.91
2022-08-22T11:50:29.236Z,99067.91
2022-08-22T11:53:14.589Z,99071.88
2022-08-22T11:55:48.831Z,99075.66
2022-08-22T11:58:53.140Z,99071.03
2022-08-22T12:01:50.777Z,99072.81
2022-08-22T12:04:28.201Z,99065.28
2022-08-22T12:07:12.995Z,99069.03
2022-08-22T12:09:47.665Z,99068.38
2022-08-22T12:12:24.870Z,99070.56
2022-08-22T12:14:54.789Z,99068.38
2022-08-22T12:17:55.364Z,99083.72
2022-08-22T12:20:45.574Z,99071.53
2022-08-22T12:23:48.948Z,99071.63
2022-08-22T12:26:34.808Z,99072.75
2022-08-22T12:29:39.800Z,99076.28
2022-08-22T12:32:43.939Z,99075.91
2022-08-22T12:35:18.329Z,99078.66
2022-08-22T12:38:26.727Z,99069.19
2022-08-22T12:41:00.751Z,99074.66
2022-08-22T12:43:40.501Z,99067.06
2022-08-22T12:46:15.335Z,99057.13
2022-08-22T12:49:17.426Z,99054.09
2022-08-22T12:52:08.757Z,99060.53
2022-08-22T12:54:56.682Z,99053.78
2022-08-22T12:57:42.014Z,99058.84
2022-08-22T13:00:11.680Z,99072.69
2022-08-22T13:02:38.808Z,99072.00
2022-08-22T13:05:19.931Z,99066.69
2022-08-22T13:07:58.419Z,99072.50
2022-08-22T13:10:35.928Z,99083.13
2022-08-22T13:13:12.306Z,99077.50
2022-08-22T13:15:46.691Z,99088.78
2022-08-22T13:18:30.591Z,99088.78
2022-08-22T13:21:02.612Z,99075.91
2022-08-22T13:23:32.748Z,99082.00
2022-08-22T13:26:07.684Z,99075.91
2022-08-22T13:28:44.133Z,99083.13
2022-08-22T13:31:24.992Z,99078.94
2022-08-22T13:33:59.218Z,99089.13
2022-08-22T13:36:30.435Z,99083.47
2022-08-22T13:39:07.403Z,99087.38
2022-08-22T13:41:45.196Z,99090.03
2022-08-22T13:44:17.823Z,99085.16
2022-08-22T13:47:10.899Z,99080.94
2022-08-22T13:49:41.456Z,99077.28
2022-08-22T13:52:31.758Z,99079.16
2022-08-22T13:55:18.126Z,99079.94
2022-08-22T13:57:51.885Z,99079.28
2022-08-22T14:00:29.301Z,99079.69
2022-08-22T14:03:05.533Z,99077.97
2022-08-22T14:05:42.438Z,99083.69
2022-08-22T14:08:18.474Z,99079.16
2022-08-22T14:11:01.378Z,99076.84
2022-08-22T14:13:42.878Z,99081.59
2022-08-22T14:16:47.182Z,99069.94
2022-08-22T14:19:38.293Z,99073.47
2022-08-22T14:22:34.822Z,99078.19
2022-08-22T14:25:07.348Z,99066.91
2022-08-22T14:27:43.415Z,99063.97
2022-08-22T14:30:17.224Z,99062.03
2022-08-22T14:32:53.583Z,99063.31
2022-08-22T14:35:31.435Z,99068.38
2022-08-22T14:38:20.403Z,99071.03
2022-08-22T14:41:08.246Z,99067.00
2022-08-22T14:43:48.244Z,99058.78
2022-08-22T14:46:34.054Z,99068.13
2022-08-22T14:49:16.469Z,99064.78
2022-08-22T14:52:09.687Z,99077.19
2022-08-22T14:54:37.388Z,99069.81
2022-08-22T14:57:10.104Z,99073.78
2022-08-22T14:59:50.262Z,99073.59
2022-08-22T15:02:29.936Z,99072.75
2022-08-22T15:05:00.038Z,99084.91
2022-08-22T15:07:32.421Z,99079.22
2022-08-22T15:10:17.661Z,99092.28
2022-08-22T15:12:51.857Z,99089.19
2022-08-22T15:15:49.398Z,99090.97
2022-08-22T15:18:40.834Z,99082.31
2022-08-22T15:21:26.354Z,99091.06
2022-08-22T15:23:56.111Z,99085.41
2022-08-22T15:26:31.433Z,99082.25
2022-08-22T15:29:06.317Z,99079.03
2022-08-22T15:31:34.246Z,99085.81
2022-08-22T15:34:35.694Z,99095.22
2022-08-22T15:37:17.705Z,99096.56
2022-08-22T15:40:14.064Z,99092.63
2022-08-22T15:42:45.445Z,99091.06
2022-08-22T15:45:33.878Z,99086.63
2022-08-22T15:48:07.837Z,99093.63
2022-08-22T15:50:41.976Z,99097.97
2022-08-22T15:53:11.669Z,99090.78
2022-08-22T15:56:05.221Z,99089.75
2022-08-22T15:58:34.422Z,99088.91
2022-08-22T16:01:19.729Z,99089.66
2022-08-22T16:04:07.172Z,99085.16
2022-08-22T16:06:52.992Z,99089.66
2022-08-22T16:09:44.476Z,99080.53
2022-08-22T16:12:26.865Z,99083.94
2022-08-22T16:14:53.882Z,99083.38
2022-08-22T16:17:29.447Z,99083.72
2022-08-22T16:20:09.888Z,99069.69
2022-08-22T16:22:57.226Z,99064.94
2022-08-22T16:25:46.861Z,99077.66
2022-08-22T16:28:57.951Z,99082.88
2022-08-22T16:31:33.951Z,99072.94
2022-08-22T16:34:26.851Z,99082.66
2022-08-22T16:37:08.748Z,99082.66
2022-08-22T16:39:46.930Z,99072.06
2022-08-22T16:42:13.710Z,99078.13
2022-08-22T16:45:14.659Z,99086.09
2022-08-22T16:47:56.576Z,99081.91
2022-08-22T16:50:30.951Z,99090.41
2022-08-22T16:53:28.833Z,99092.09
2022-08-22T16:56:36.814Z,99089.22
2022-08-22T16:59:28.913Z,99090.25
2022-08-22T17:02:18.015Z,99086.38
2022-08-22T17:05:23.263Z,99086.81
2022-08-22T17:08:00.017Z,99093.00
2022-08-22T17:10:33.350Z,99089.91
2022-08-22T17:13:18.608Z,99097.44
2022-08-22T17:16:03.967Z,99094.44
2022-08-22T17:18:39.712Z,99093.78
2022-08-22T17:21:19.529Z,99100.28
2022-08-22T17:24:08.936Z,99104.69
2022-08-22T17:27:18.546Z,99105.50
2022-08-22T17:30:00.218Z,99098.19
2022-08-22T17:32:32.980Z,99105.81
2022-08-22T17:35:25.048Z,99101.38
2022-08-22T17:38:09.850Z,99105.91
2022-08-22T17:41:16.939Z,99112.44
2022-08-22T17:43:49.580Z,99116.63
2022-08-22T17:46:28.500Z,99114.44
2022-08-22T17:49:20.112Z,99126.56
2022-08-22T17:51:59.993Z,99124.25
2022-08-22T17:54:40.001Z,99134.41
2022-08-22T17:57:27.813Z,99128.75
2022-08-22T18:00:16.577Z,99133.41
2022-08-22T18:02:51.081Z,99126.56
2022-08-22T18:05:23.476Z,99126.13
2022-08-22T18:07:59.608Z,99131.41
2022-08-22T18:10:49.468Z,99124.56
2022-08-22T18:13:53.528Z,99134.75
2022-08-22T18:16:29.539Z,99135.94
2022-08-22T18:19:15.240Z,99126.22
2022-08-22T18:21:54.999Z,99126.56
2022-08-22T18:24:39.131Z,99131.41
2022-08-22T18:27:43.650Z,99140.47
2022-08-22T18:30:13.695Z,99141.59
2022-08-22T18:32:46.413Z,99143.13
2022-08-22T18:35:28.841Z,99140.47
2022-08-22T18:38:20.166Z,99140.16
2022-08-22T18:40:54.503Z,99134.06
2022-08-22T18:43:35.826Z,99141.25
2022-08-22T18:46:25.226Z,99140.59
2022-08-22T18:49:14.152Z,99149.97
2022-08-22T18:51:40.284Z,99142.81
2022-08-22T18:54:07.407Z,99141.59
2022-08-22T18:56:53.706Z,99142.03
2022-08-22T18:59:58.247Z,99147.13
2022-08-22T19:02:50.991Z,99144.34
2022-08-22T19:05:44.906Z,99148.88
2022-08-22T19:08:35.588Z,99149.56
2022-08-22T19:11:15.032Z,99144.91
2022-08-22T19:14:17.672Z,99153.63
2022-08-22T19:17:26.761Z,99141.81
2022-08-22T19:19:59.933Z,99144.47
2022-08-22T19:22:33.801Z,99140.28
2022-08-22T19:25:13.290Z,99132.97
2022-08-22T19:28:09.165Z,99128.69
2022-08-22T19:30:47.241Z,99131.31
2022-08-22T19:33:34.259Z,99139.94
2022-08-22T19:36:09.657Z,99135.75
2022-08-22T19:39:08.875Z,99140.72
2022-08-22T19:41:51.289Z,99138.41
2022-08-22T19:44:22.413Z,99137.63
2022-08-22T19:46:58.537Z,99144.13
2022-08-22T19:49:30.418Z,99140.81
2022-08-22T19:52:38.687Z,99138.94
2022-08-22T19:55:14.567Z,99138.06
2022-08-22T19:57:57.911Z,99146.78
2022-08-22T20:00:50.361Z,99152.09
2022-08-22T20:03:48.144Z,99150.66
2022-08-22T20:06:45.082Z,99145.34
2022-08-22T20:09:42.022Z,99154.06
2022-08-22T20:12:20.511Z,99161.25
2022-08-22T20:14:48.051Z,99155.94
2022-08-22T20:17:27.194Z,99154.84
2022-08-22T20:22:54.843Z,99147.56
2022-08-22T20:25:45.235Z,99154.41
2022-08-22T20:28:44.544Z,99153.31
2022-08-22T20:31:20.433Z,99153.75
2022-08-22T20:33:58.134Z,99152.19
2022-08-22T20:36:27.586Z,99140.50
2022-08-22T20:39:08.920Z,99143.16
2022-08-22T20:41:47.699Z,99139.41
2022-08-22T20:44:25.456Z,99134.44
2022-08-22T20:47:00.211Z,99145.81
2022-08-22T20:49:37.855Z,99131.78
2022-08-22T20:52:08.532Z,99134.53
2022-08-22T20:54:38.099Z,99135.75
2022-08-22T20:57:17.434Z,99141.03
2022-08-22T21:00:13.061Z,99119.81
2022-08-22T21:02:50.634Z,99120.50
2022-08-22T21:05:24.501Z,99122.38
2022-08-22T21:08:22.660Z,99114.09
2022-08-22T21:10:58.602Z,99115.28
2022-08-22T21:13:29.545Z,99108.13
2022-08-22T21:16:02.054Z,99110.00
2022-08-22T21:18:32.849Z,99110.00
2022-08-22T21:21:26.756Z,99116.88
2022-08-22T21:24:00.858Z,99109.34
2022-08-22T21:26:33.453Z,99123.03
2022-08-22T21:29:05.806Z,99116.53
2022-08-22T21:32:13.779Z,99117.28
2022-08-22T21:34:47.995Z,99109.69
2022-08-22T21:37:25.356Z,99104.69
2022-08-22T21:40:21.638Z,99103.16
2022-08-22T21:43:13.076Z,99098.19
2022-08-22T21:45:39.852Z,99096.31
2022-08-22T21:48:35.292Z,99086.72
2022-08-22T21:51:24.244Z,99089.25
2022-08-22T21:54:03.731Z,99087.28
2022-08-22T21:56:38.043Z,99084.63
2022-08-22T21:59:21.662Z,99083.97
2022-08-22T22:01:53.278Z,99076.13
2022-08-22T22:04:23.169Z,99082.50
2022-08-22T22:06:49.923Z,99086.72
2022-08-22T22:09:16.759Z,99085.59
2022-08-22T22:11:43.629Z,99084.06
2022-08-22T22:14:10.469Z,99080.31
2022-08-22T22:16:37.507Z,99086.81
2022-08-22T22:19:07.510Z,99083.06
2022-08-22T22:21:34.418Z,99078.88
2022-08-22T22:24:01.289Z,99078.53
2022-08-22T22:26:28.180Z,99074.00
2022-08-22T22:28:54.980Z,99076.22
2022-08-22T22:31:22.668Z,99073.13
2022-08-22T22:33:49.464Z,99073.13
2022-08-22T22:36:21.463Z,99070.81
2022-08-22T22:38:51.500Z,99077.97
2022-08-22T22:41:20.085Z,99074.34
2022-08-22T22:43:46.863Z,99077.75
2022-08-22T22:46:13.671Z,99074.66
2022-08-22T22:48:40.515Z,99074.56
2022-08-22T22:51:09.586Z,99072.25
2022-08-22T22:53:40.165Z,99080.19
2022-08-22T22:56:13.084Z,99072.25
2022-08-22T22:58:40.668Z,99068.47
2022-08-22T23:01:16.549Z,99069.69
2022-08-22T23:03:44.385Z,99065.16
2022-08-22T23:06:13.478Z,99062.53
2022-08-22T23:08:40.358Z,99065.94
2022-08-22T23:11:17.446Z,99068.28
2022-08-22T23:13:44.373Z,99064.06
2022-08-22T23:16:16.315Z,99080.41
2022-08-22T23:18:44.811Z,99074.34
2022-08-22T23:21:18.636Z,99070.56
2022-08-22T23:23:46.899Z,99071.34
2022-08-22T23:26:14.106Z,99067.72
2022-08-22T23:28:41.617Z,99072.94
2022-08-22T23:31:10.779Z,99069.72
2022-08-22T23:33:37.764Z,99071.16
2022-08-22T23:36:16.748Z,99069.28
2022-08-22T23:38:45.158Z,99063.53
2022-08-22T23:41:14.871Z,99069.63
2022-08-22T23:43:44.708Z,99067.72
2022-08-22T23:46:13.713Z,99071.91
2022-08-22T23:48:41.908Z,99070.06
2022-08-22T23:51:13.917Z,99066.31
2022-08-22T23:53:42.102Z,99064.06
2022-08-22T23:56:09.951Z,99053.72
2022-08-22T23:58:47.377Z,99059.13
